Time;durP1;ratioP1;P1;durP2;ratioP2;P2;SDS_P1;SDS_P2;PMS_P1;PMS_P2;Temp;Humidity;BMP_temperature;BMP_pressure;BME280_temperature;BME280_humidity;BME280_pressure;Samples;Min_cycle;Max_cycle;Signal;HPM_P1;HPM_P2
2022/11/18 00:02:13;;;;;;;8.45;2.78;;;11.50;78.00;;;;;;5016582;28;20033;-67
2022/11/18 00:04:38;;;;;;;6.30;2.55;;;11.50;77.40;;;;;;5048849;28;20224;-70
2022/11/18 00:07:04;;;;;;;8.15;2.42;;;11.50;77.50;;;;;;5034276;28;20104;-68
2022/11/18 00:09:30;;;;;;;7.03;2.88;;;11.50;77.50;;;;;;5048223;28;20464;-67
2022/11/18 00:14:59;;;;;;;5.97;2.30;;;11.50;77.60;;;;;;5012069;28;20034;-67
2022/11/18 00:17:25;;;;;;;8.00;2.33;;;11.50;77.60;;;;;;5012228;28;20063;-68
2022/11/18 00:19:50;;;;;;;9.50;2.67;;;11.50;77.60;;;;;;5011236;28;20041;-68
2022/11/18 00:22:16;;;;;;;6.28;2.22;;;11.50;77.70;;;;;;5012171;28;20060;-68
2022/11/18 00:24:41;;;;;;;6.47;2.45;;;11.50;77.70;;;;;;4995637;28;20033;-68
2022/11/18 00:27:07;;;;;;;6.88;2.63;;;11.50;77.70;;;;;;5002194;28;20534;-68
2022/11/18 00:29:33;;;;;;;6.75;2.35;;;11.50;77.70;;;;;;5009299;28;20040;-67
2022/11/18 00:31:58;;;;;;;5.82;2.38;;;11.50;77.70;;;;;;5010302;28;20044;-67
2022/11/18 00:34:25;;;;;;;6.15;2.28;;;11.50;77.80;;;;;;5012789;28;20044;-68
2022/11/18 00:36:50;;;;;;;8.02;2.65;;;11.50;77.80;;;;;;5004596;28;20472;-67
2022/11/18 00:39:18;;;;;;;8.52;2.72;;;11.50;77.80;;;;;;5010578;28;20048;-68
2022/11/18 00:44:28;;;;;;;9.35;2.22;;;11.50;77.80;;;;;;5011337;28;20044;-67
2022/11/18 00:46:54;;;;;;;8.50;2.88;;;11.50;77.90;;;;;;5032897;28;20033;-67
2022/11/18 00:49:20;;;;;;;7.75;2.50;;;11.40;77.80;;;;;;5032898;28;20029;-67
2022/11/18 00:51:45;;;;;;;7.70;3.00;;;11.40;77.90;;;;;;5031815;28;20022;-67
2022/11/18 00:54:11;;;;;;;7.05;2.88;;;11.40;78.00;;;;;;5032007;28;20450;-67
2022/11/18 00:56:37;;;;;;;8.32;2.60;;;11.40;78.60;;;;;;5032071;28;20040;-68
2022/11/18 00:59:02;;;;;;;8.07;2.95;;;11.40;78.00;;;;;;5032897;28;20033;-67
2022/11/18 01:01:28;;;;;;;6.80;2.33;;;11.40;78.00;;;;;;5014655;28;20033;-67
2022/11/18 01:03:54;;;;;;;5.82;2.22;;;11.40;78.00;;;;;;5033441;28;20030;-67
2022/11/18 01:06:19;;;;;;;7.13;2.72;;;11.40;78.00;;;;;;5030621;28;20323;-67
2022/11/18 01:08:45;;;;;;;8.43;2.47;;;11.40;78.00;;;;;;5032657;28;20021;-67
2022/11/18 01:13:55;;;;;;;8.73;2.88;;;11.40;78.00;;;;;;5033325;28;20032;-67
2022/11/18 01:16:23;;;;;;;6.90;2.35;;;11.40;78.00;;;;;;5032570;28;20612;-67
2022/11/18 01:18:49;;;;;;;6.45;2.55;;;11.40;78.00;;;;;;5033904;28;20386;-67
2022/11/18 01:21:15;;;;;;;7.70;2.85;;;11.40;78.10;;;;;;5033081;28;20025;-67
2022/11/18 01:23:41;;;;;;;9.55;3.33;;;11.30;78.10;;;;;;5033786;28;20101;-67
2022/11/18 01:26:08;;;;;;;9.90;2.83;;;11.30;78.10;;;;;;5032175;28;20045;-67
2022/11/18 01:28:34;;;;;;;6.35;2.70;;;11.30;78.10;;;;;;5029156;28;20025;-67
2022/11/18 01:31:15;;;;;;;6.95;2.22;;;11.30;78.10;;;;;;5031893;28;20113;-67
2022/11/18 01:33:42;;;;;;;8.85;2.60;;;11.30;78.10;;;;;;5033805;28;20461;-67
2022/11/18 01:36:22;;;;;;;8.68;2.80;;;11.30;78.20;;;;;;5031845;28;20470;-67
2022/11/18 01:38:48;;;;;;;5.95;2.38;;;11.30;78.20;;;;;;5033042;28;20358;-67
2022/11/18 01:41:15;;;;;;;5.65;2.25;;;11.40;78.30;;;;;;5033247;28;20036;-67
2022/11/18 01:43:51;;;;;;;7.43;2.90;;;11.30;79.00;;;;;;5033066;28;20065;-67
2022/11/18 01:46:18;;;;;;;6.68;2.22;;;11.30;78.30;;;;;;5031704;28;20040;-67
2022/11/18 01:48:47;;;;;;;9.27;3.25;;;11.30;78.30;;;;;;5033281;28;20037;-67
2022/11/18 01:51:16;;;;;;;6.15;2.45;;;11.30;78.40;;;;;;5036129;28;20032;-67
2022/11/18 01:53:52;;;;;;;5.78;2.55;;;11.30;78.50;;;;;;5036741;28;20036;-67
2022/11/18 01:56:22;;;;;;;7.32;3.03;;;11.30;78.50;;;;;;5035035;28;20029;-68
2022/11/18 01:58:54;;;;;;;5.80;2.65;;;11.30;78.50;;;;;;5037213;28;20095;-67
2022/11/18 02:01:19;;;;;;;6.95;3.05;;;11.30;78.60;;;;;;5034879;28;20034;-67
2022/11/18 02:03:47;;;;;;;6.25;2.65;;;11.30;78.70;;;;;;5036816;28;20033;-67
2022/11/18 02:06:13;;;;;;;10.15;2.88;;;11.30;78.70;;;;;;5034860;28;20083;-67
2022/11/18 02:08:40;;;;;;;6.68;2.65;;;11.30;78.70;;;;;;5035953;28;20029;-67
2022/11/18 02:11:49;;;;;;;7.88;2.90;;;11.30;78.80;;;;;;5036566;28;20029;-67
2022/11/18 02:13:57;;;;;;;6.25;2.60;;;11.30;78.80;;;;;;5036793;28;20519;-67
2022/11/18 02:16:31;;;;;;;6.40;2.75;;;11.30;78.80;;;;;;5017270;28;20038;-67
2022/11/18 02:19:10;;;;;;;7.93;2.80;;;11.30;78.80;;;;;;5037346;28;20073;-68
2022/11/18 02:22:21;;;;;;;7.03;2.72;;;11.30;78.90;;;;;;5034046;28;20080;-67
2022/11/18 02:24:52;;;;;;;6.90;2.72;;;11.30;78.90;;;;;;5034889;28;20038;-67
2022/11/18 02:27:46;;;;;;;7.00;2.90;;;11.30;79.00;;;;;;5032673;28;20034;-67
2022/11/18 02:30:15;;;;;;;7.70;2.38;;;11.30;79.00;;;;;;5014808;28;20048;-67
2022/11/18 02:32:49;;;;;;;6.28;2.17;;;11.30;79.00;;;;;;5022844;28;20057;-67
2022/11/18 02:35:25;;;;;;;7.55;2.72;;;11.30;79.00;;;;;;5032218;28;20064;-67
2022/11/18 02:37:55;;;;;;;6.95;2.58;;;11.30;79.10;;;;;;5033492;28;20036;-67
2022/11/18 02:40:33;;;;;;;7.85;3.13;;;11.20;79.50;;;;;;5034420;28;20556;-67
2022/11/18 02:43:23;;;;;;;8.48;3.00;;;11.20;79.10;;;;;;5006657;28;20045;-68
2022/11/18 02:45:53;;;;;;;9.15;2.50;;;11.30;79.10;;;;;;5014862;28;20387;-68
2022/11/18 02:48:22;;;;;;;8.63;2.90;;;11.20;79.20;;;;;;5032352;28;20037;-68
2022/11/18 02:50:50;;;;;;;6.10;2.47;;;11.20;79.20;;;;;;4999808;28;20037;-67
2022/11/18 02:53:19;;;;;;;6.45;2.83;;;11.20;79.20;;;;;;5032614;28;20167;-66
2022/11/18 02:55:46;;;;;;;8.80;2.67;;;11.20;79.30;;;;;;5014028;28;20041;-66
2022/11/18 02:58:14;;;;;;;6.45;2.65;;;11.20;79.30;;;;;;5010522;28;20057;-66
2022/11/18 03:00:40;;;;;;;7.22;2.80;;;11.20;79.30;;;;;;5033924;28;20186;-66
2022/11/18 03:03:25;;;;;;;7.25;2.70;;;11.20;79.30;;;;;;5033598;28;20034;-66
2022/11/18 03:06:08;;;;;;;8.15;2.78;;;11.20;79.40;;;;;;5034865;28;20446;-66
2022/11/18 03:08:51;;;;;;;6.60;2.47;;;11.20;79.50;;;;;;5034532;28;20120;-67
2022/11/18 03:11:31;;;;;;;7.22;3.10;;;11.20;79.50;;;;;;5033754;28;20041;-66
2022/11/18 03:14:05;;;;;;;5.97;2.42;;;11.20;79.50;;;;;;5034545;28;20099;-66
2022/11/18 03:16:40;;;;;;;7.43;2.92;;;11.20;79.50;;;;;;5016606;28;20350;-66
2022/11/18 03:19:22;;;;;;;7.47;2.65;;;11.30;79.50;;;;;;5045648;28;20042;-66
2022/11/18 03:22:22;;;;;;;6.38;2.55;;;11.30;79.50;;;;;;5034158;28;20163;-66
2022/11/18 03:25:04;;;;;;;6.22;2.47;;;11.30;79.50;;;;;;5034918;28;20033;-66
2022/11/18 03:28:01;;;;;;;6.97;2.90;;;11.30;79.60;;;;;;5032808;28;20450;-66
2022/11/18 03:30:31;;;;;;;5.85;2.65;;;11.30;79.60;;;;;;5035133;28;20417;-66
2022/11/18 03:33:02;;;;;;;7.70;2.83;;;11.30;79.70;;;;;;5034058;28;20155;-66
2022/11/18 03:35:32;;;;;;;5.82;2.55;;;11.30;79.60;;;;;;5033781;28;20454;-66
2022/11/18 03:38:10;;;;;;;6.38;2.40;;;11.30;79.60;;;;;;5033824;28;20365;-66
2022/11/18 03:40:39;;;;;;;7.50;2.63;;;11.30;79.70;;;;;;5034207;28;20460;-66
2022/11/18 03:43:09;;;;;;;5.22;2.40;;;11.40;79.80;;;;;;5033829;28;20036;-66
2022/11/18 03:45:43;;;;;;;7.40;2.70;;;11.40;79.80;;;;;;5031045;28;20418;-67
2022/11/18 03:48:15;;;;;;;5.30;2.30;;;11.40;79.80;;;;;;5031898;28;20167;-66
2022/11/18 03:50:51;;;;;;;8.00;2.42;;;11.40;79.90;;;;;;5033122;28;20026;-66
2022/11/18 03:53:19;;;;;;;6.65;2.55;;;11.40;79.90;;;;;;5033709;28;20331;-66
2022/11/18 03:55:51;;;;;;;8.10;3.33;;;11.40;79.90;;;;;;5033992;28;20053;-66
2022/11/18 03:58:25;;;;;;;7.85;2.72;;;11.40;80.00;;;;;;5033116;28;20098;-66
2022/11/18 04:00:57;;;;;;;5.32;2.45;;;11.40;80.00;;;;;;5033756;28;20488;-66
2022/11/18 04:03:25;;;;;;;6.32;3.05;;;11.40;80.10;;;;;;5032708;28;20041;-66
2022/11/18 04:06:01;;;;;;;8.85;2.83;;;11.40;80.10;;;;;;5033868;28;20067;-66
2022/11/18 04:08:34;;;;;;;6.55;2.72;;;11.50;80.20;;;;;;5047432;28;20033;-66
2022/11/18 04:14:05;;;;;;;7.32;3.08;;;11.50;80.20;;;;;;5032619;28;20065;-66
2022/11/18 04:16:37;;;;;;;7.18;2.72;;;11.50;80.20;;;;;;5032631;28;20413;-66
2022/11/18 04:19:02;;;;;;;8.43;2.90;;;11.50;80.20;;;;;;5033813;28;20498;-66
2022/11/18 04:21:28;;;;;;;7.07;2.75;;;11.50;80.90;;;;;;5034330;28;20040;-66
2022/11/18 04:23:53;;;;;;;6.10;2.50;;;11.50;80.30;;;;;;5049508;28;20036;-66
2022/11/18 04:26:19;;;;;;;6.63;2.58;;;11.40;80.30;;;;;;5033773;28;20033;-66
2022/11/18 04:28:45;;;;;;;7.63;3.60;;;11.50;80.40;;;;;;5033153;28;20111;-66
2022/11/18 04:31:10;;;;;;;9.93;2.83;;;11.50;80.50;;;;;;5034641;28;20025;-66
2022/11/18 04:33:36;;;;;;;7.10;3.35;;;11.40;80.40;;;;;;5032748;28;20060;-66
2022/11/18 04:36:01;;;;;;;8.38;2.85;;;11.50;80.50;;;;;;5031919;28;20033;-67
2022/11/18 04:38:27;;;;;;;7.68;2.80;;;11.50;80.60;;;;;;5032000;28;20025;-66
2022/11/18 04:40:52;;;;;;;10.30;2.63;;;11.50;80.60;;;;;;5032833;28;20060;-66
2022/11/18 04:43:18;;;;;;;8.32;3.05;;;11.50;80.70;;;;;;5034152;28;20022;-66
2022/11/18 04:45:44;;;;;;;6.72;2.60;;;11.40;80.70;;;;;;5034423;28;20449;-66
2022/11/18 04:48:09;;;;;;;6.68;2.58;;;11.50;80.80;;;;;;5031345;28;20029;-66
2022/11/18 04:50:35;;;;;;;6.38;2.55;;;11.50;80.90;;;;;;5032479;28;20112;-66
2022/11/18 04:53:01;;;;;;;7.20;2.78;;;11.40;80.80;;;;;;5033317;28;20060;-66
2022/11/18 04:55:26;;;;;;;8.38;3.35;;;11.40;80.90;;;;;;5029641;28;20033;-66
2022/11/18 04:57:52;;;;;;;7.78;2.85;;;11.50;81.00;;;;;;5037055;28;20033;-66
2022/11/18 05:00:18;;;;;;;6.75;2.58;;;11.50;81.00;;;;;;5035881;28;20033;-66
2022/11/18 05:02:43;;;;;;;6.18;2.53;;;11.50;81.10;;;;;;5036580;28;20036;-66
2022/11/18 05:05:09;;;;;;;7.43;2.60;;;11.50;81.10;;;;;;5044928;28;20037;-66
2022/11/18 05:07:35;;;;;;;6.43;2.70;;;11.50;81.20;;;;;;5033882;28;20026;-66
2022/11/18 05:10:00;;;;;;;7.18;3.05;;;11.50;81.20;;;;;;5033196;28;20021;-66
2022/11/18 05:15:11;;;;;;;6.90;2.47;;;11.50;81.20;;;;;;5031579;28;20042;-67
2022/11/18 05:17:37;;;;;;;7.15;2.83;;;11.50;81.20;;;;;;5031762;28;20052;-66
2022/11/18 05:20:03;;;;;;;7.95;3.00;;;11.50;81.20;;;;;;5033551;28;20354;-66
2022/11/18 05:22:29;;;;;;;7.18;3.05;;;11.50;81.20;;;;;;5032219;28;20059;-66
2022/11/18 05:24:54;;;;;;;6.32;2.75;;;11.50;81.90;;;;;;5054262;28;20351;-66
2022/11/18 05:27:20;;;;;;;6.10;2.88;;;11.60;81.40;;;;;;5035545;28;20029;-66
2022/11/18 05:29:45;;;;;;;7.68;2.97;;;11.50;81.30;;;;;;5036787;28;20599;-66
2022/11/18 05:32:11;;;;;;;9.30;3.08;;;11.50;81.40;;;;;;5037094;28;20021;-66
2022/11/18 05:34:40;;;;;;;8.07;2.53;;;11.50;81.40;;;;;;5018300;28;20450;-66
2022/11/18 05:37:05;;;;;;;9.25;3.00;;;11.50;81.40;;;;;;5023636;28;20067;-66
2022/11/18 05:39:32;;;;;;;6.05;2.67;;;11.50;81.40;;;;;;5037189;28;20061;-66
2022/11/18 05:44:43;;;;;;;9.68;2.97;;;11.50;81.50;;;;;;5036253;28;20112;-66
2022/11/18 05:47:08;;;;;;;6.47;2.50;;;11.50;81.50;;;;;;5038082;28;20470;-66
2022/11/18 05:49:34;;;;;;;8.35;2.75;;;11.40;81.50;;;;;;5036107;28;20040;-66
2022/11/18 05:52:00;;;;;;;6.25;2.50;;;11.50;81.60;;;;;;5035234;28;20083;-66
2022/11/18 05:54:26;;;;;;;8.05;3.05;;;11.50;81.60;;;;;;5036997;28;20060;-66
2022/11/18 05:56:52;;;;;;;9.60;2.90;;;11.50;81.60;;;;;;5032910;28;20029;-67
2022/11/18 05:59:17;;;;;;;9.63;3.05;;;11.50;81.70;;;;;;5035745;28;20033;-67
2022/11/18 06:02:00;;;;;;;6.85;2.83;;;11.50;81.70;;;;;;5034851;28;20076;-67
2022/11/18 06:04:32;;;;;;;7.15;2.97;;;11.50;81.70;;;;;;5035806;28;20442;-66
2022/11/18 06:07:21;;;;;;;7.75;2.97;;;11.40;81.60;;;;;;5049195;28;20026;-66
2022/11/18 06:09:52;;;;;;;6.35;2.70;;;11.40;81.70;;;;;;5035700;28;20069;-66
2022/11/18 06:12:22;;;;;;;6.60;2.50;;;11.40;81.70;;;;;;5034680;28;20105;-66
2022/11/18 06:14:55;;;;;;;8.25;2.88;;;11.40;81.80;;;;;;5036074;28;20120;-65
2022/11/18 06:17:26;;;;;;;6.22;2.72;;;11.40;81.80;;;;;;5033792;28;20054;-66
2022/11/18 06:19:52;;;;;;;7.10;2.83;;;11.40;81.80;;;;;;5035916;28;20032;-66
2022/11/18 06:22:18;;;;;;;6.57;2.70;;;11.40;81.80;;;;;;5034657;28;20461;-66
2022/11/18 06:24:44;;;;;;;5.82;2.50;;;11.40;81.80;;;;;;5034877;28;20029;-66
2022/11/18 06:27:10;;;;;;;7.03;3.22;;;11.40;81.80;;;;;;5033508;28;20032;-66
2022/11/18 06:29:36;;;;;;;7.60;2.67;;;11.30;81.80;;;;;;5035372;28;20049;-66
2022/11/18 06:32:01;;;;;;;8.05;3.33;;;11.30;81.70;;;;;;5035034;28;20018;-66
2022/11/18 06:34:27;;;;;;;10.73;3.33;;;11.30;82.40;;;;;;5033880;28;20034;-67
2022/11/18 06:36:52;;;;;;;7.50;3.17;;;11.20;81.70;;;;;;5034322;28;20033;-66
2022/11/18 06:39:18;;;;;;;6.15;2.80;;;11.30;81.80;;;;;;5039783;28;20029;-66
2022/11/18 06:41:44;;;;;;;8.35;3.10;;;11.20;81.80;;;;;;5034105;28;20025;-66
2022/11/18 06:44:13;;;;;;;5.65;2.70;;;11.20;81.70;;;;;;5034167;28;20040;-66
2022/11/18 06:46:57;;;;;;;8.85;2.97;;;11.20;81.70;;;;;;5034001;28;20113;-66
2022/11/18 06:49:27;;;;;;;6.88;3.05;;;11.20;81.80;;;;;;5035054;28;20068;-66
2022/11/18 06:51:53;;;;;;;6.40;2.85;;;11.10;82.30;;;;;;5030951;28;20072;-66
2022/11/18 06:54:19;;;;;;;7.13;3.28;;;11.10;81.70;;;;;;5035570;28;20025;-66
2022/11/18 06:56:44;;;;;;;11.98;3.60;;;11.10;81.70;;;;;;5033130;28;20025;-66
2022/11/18 06:59:10;;;;;;;8.07;3.08;;;11.10;81.60;;;;;;5034779;28;20026;-66
2022/11/18 07:01:38;;;;;;;5.88;2.90;;;11.10;81.60;;;;;;5035711;28;20017;-66
2022/11/18 07:04:04;;;;;;;7.53;2.80;;;11.10;81.60;;;;;;5036581;28;20057;-66
2022/11/18 07:06:32;;;;;;;6.90;3.03;;;11.00;81.60;;;;;;5034965;28;20026;-66
2022/11/18 07:09:00;;;;;;;7.97;3.40;;;11.10;81.60;;;;;;5034421;28;20051;-65
2022/11/18 07:11:26;;;;;;;7.55;3.30;;;11.00;81.50;;;;;;5031793;28;20029;-66
2022/11/18 07:13:52;;;;;;;7.97;3.60;;;11.00;81.50;;;;;;5032582;28;20033;-65
2022/11/18 07:16:20;;;;;;;6.05;3.22;;;11.00;81.40;;;;;;5035034;28;20036;-66
2022/11/18 07:18:47;;;;;;;7.78;3.55;;;10.90;81.30;;;;;;5034796;28;20056;-65
2022/11/18 07:21:19;;;;;;;10.88;3.95;;;10.90;81.30;;;;;;5035855;28;20083;-66
2022/11/18 07:23:45;;;;;;;8.88;3.97;;;10.90;81.30;;;;;;5034695;28;20061;-66
2022/11/18 07:26:12;;;;;;;8.00;3.67;;;10.90;81.30;;;;;;5035009;28;20354;-66
2022/11/18 07:28:38;;;;;;;8.27;3.78;;;10.90;81.20;;;;;;5034447;28;20033;-66
2022/11/18 07:31:12;;;;;;;9.68;3.50;;;10.90;81.20;;;;;;5030790;28;20079;-66
2022/11/18 07:33:39;;;;;;;10.60;3.63;;;10.90;81.20;;;;;;5032154;28;20105;-65
2022/11/18 07:36:09;;;;;;;8.70;3.80;;;10.90;81.30;;;;;;5035938;28;20105;-64
2022/11/18 07:38:35;;;;;;;9.30;3.53;;;10.90;81.20;;;;;;5033897;28;20021;-64
2022/11/18 07:41:09;;;;;;;6.90;3.58;;;10.90;81.10;;;;;;5037700;28;20059;-64
2022/11/18 07:43:37;;;;;;;8.68;3.28;;;11.00;81.10;;;;;;5033620;28;20037;-64
2022/11/18 07:46:13;;;;;;;8.65;3.60;;;11.00;81.10;;;;;;5035417;28;20037;-65
2022/11/18 07:48:39;;;;;;;7.60;3.20;;;11.00;81.10;;;;;;5015568;28;20456;-65
2022/11/18 07:51:05;;;;;;;6.47;3.17;;;11.00;81.10;;;;;;5033787;28;20036;-65
2022/11/18 07:53:32;;;;;;;10.15;3.67;;;11.00;81.10;;;;;;5033883;28;20041;-65
2022/11/18 07:55:57;;;;;;;8.95;2.97;;;11.00;81.10;;;;;;5037502;28;20422;-65
2022/11/18 07:58:23;;;;;;;7.68;3.60;;;11.00;81.10;;;;;;5034532;28;20068;-65
2022/11/18 08:00:49;;;;;;;7.45;3.42;;;11.00;81.10;;;;;;5033655;28;20104;-65
2022/11/18 08:03:14;;;;;;;9.70;3.42;;;11.00;81.10;;;;;;5033510;28;20037;-65
2022/11/18 08:05:40;;;;;;;7.53;3.03;;;11.00;81.10;;;;;;5034108;28;20037;-65
2022/11/18 08:08:05;;;;;;;7.50;3.50;;;11.00;81.10;;;;;;5033655;28;20025;-65
2022/11/18 08:10:31;;;;;;;9.48;3.63;;;11.00;81.10;;;;;;5033417;28;20026;-64
2022/11/18 08:12:57;;;;;;;10.50;4.05;;;11.00;81.10;;;;;;5037245;28;20029;-65
2022/11/18 08:15:24;;;;;;;7.28;3.80;;;11.00;81.00;;;;;;5034648;28;20037;-65
2022/11/18 08:17:50;;;;;;;8.70;4.00;;;11.10;81.00;;;;;;5033668;28;20049;-65
2022/11/18 08:20:16;;;;;;;8.70;3.70;;;11.10;80.90;;;;;;5032542;28;20099;-65
2022/11/18 08:22:41;;;;;;;8.30;4.07;;;11.20;80.80;;;;;;5035374;28;20037;-65
2022/11/18 08:25:07;;;;;;;7.40;3.92;;;11.20;80.70;;;;;;5032445;28;20040;-64
2022/11/18 08:27:33;;;;;;;8.98;3.63;;;11.20;80.70;;;;;;5032225;28;20033;-65
2022/11/18 08:29:59;;;;;;;9.25;4.03;;;11.30;80.70;;;;;;5033267;28;20075;-65
2022/11/18 08:32:24;;;;;;;10.68;3.78;;;11.30;80.50;;;;;;5016656;28;20053;-65
2022/11/18 08:34:50;;;;;;;8.60;3.70;;;11.40;80.40;;;;;;5032898;28;20427;-65
2022/11/18 08:37:16;;;;;;;7.35;3.20;;;11.40;80.30;;;;;;5034119;28;20373;-65
2022/11/18 08:39:42;;;;;;;7.78;3.53;;;11.50;80.30;;;;;;5034263;28;20029;-65
2022/11/18 08:42:08;;;;;;;7.72;4.25;;;11.50;80.10;;;;;;5049954;28;20033;-65
2022/11/18 08:44:34;;;;;;;9.85;3.85;;;11.60;80.10;;;;;;5034076;28;20045;-65
2022/11/18 08:47:00;;;;;;;7.93;3.47;;;11.60;79.80;;;;;;5034223;28;20032;-67
2022/11/18 08:49:26;;;;;;;7.85;3.67;;;11.70;79.70;;;;;;5034063;28;20405;-65
2022/11/18 08:51:51;;;;;;;8.23;3.30;;;11.80;79.60;;;;;;5033350;28;20355;-66
2022/11/18 08:54:17;;;;;;;9.93;3.40;;;11.80;79.50;;;;;;5033011;28;20474;-64
2022/11/18 08:56:43;;;;;;;10.93;3.30;;;11.90;79.40;;;;;;5033163;28;20110;-64
2022/11/18 08:59:08;;;;;;;8.77;3.40;;;11.90;79.20;;;;;;5036837;28;20025;-64
2022/11/18 09:01:37;;;;;;;9.60;3.58;;;11.90;79.10;;;;;;5038248;28;20033;-64
2022/11/18 09:04:03;;;;;;;8.98;3.15;;;11.90;79.10;;;;;;5037902;28;20041;-64
2022/11/18 09:06:29;;;;;;;9.60;3.90;;;11.90;79.10;;;;;;5038324;28;20032;-64
2022/11/18 09:08:54;;;;;;;7.00;3.20;;;11.90;79.10;;;;;;5038136;28;20038;-64
2022/11/18 09:11:25;;;;;;;8.70;3.58;;;11.90;79.10;;;;;;5037317;28;20391;-64
2022/11/18 09:13:56;;;;;;;8.20;3.33;;;12.00;79.00;;;;;;5037107;28;20029;-64
2022/11/18 09:16:26;;;;;;;7.22;3.25;;;12.00;78.90;;;;;;5038117;28;20029;-65
2022/11/18 09:18:53;;;;;;;8.20;3.50;;;12.10;78.60;;;;;;5034896;28;20050;-64
2022/11/18 09:21:19;;;;;;;7.93;3.45;;;12.20;78.40;;;;;;5037348;28;20044;-64
2022/11/18 09:23:45;;;;;;;9.95;3.03;;;12.30;78.30;;;;;;5035839;28;20385;-65
2022/11/18 09:26:13;;;;;;;6.72;3.20;;;12.40;78.00;;;;;;5037462;28;20025;-63
2022/11/18 09:28:39;;;;;;;9.90;3.75;;;12.40;77.80;;;;;;5034210;28;20083;-63
2022/11/18 09:31:07;;;;;;;7.78;3.22;;;12.40;77.70;;;;;;5033599;28;20025;-64
2022/11/18 09:33:34;;;;;;;7.57;2.70;;;12.50;77.70;;;;;;5037730;28;21460;-64
2022/11/18 09:36:00;;;;;;;8.07;2.95;;;12.50;77.40;;;;;;5034845;28;20057;-65
2022/11/18 09:38:29;;;;;;;9.65;3.63;;;12.60;77.40;;;;;;5031646;28;20041;-64
2022/11/18 09:40:55;;;;;;;7.00;3.10;;;12.60;77.40;;;;;;5033940;28;20021;-64
2022/11/18 09:43:52;;;;;;;8.30;3.20;;;12.70;77.20;;;;;;5036853;28;20028;-64
2022/11/18 09:46:29;;;;;;;6.38;2.92;;;12.80;76.90;;;;;;5051221;28;20021;-64
2022/11/18 09:49:13;;;;;;;8.48;3.15;;;12.90;76.70;;;;;;5036903;28;20025;-64
2022/11/18 09:51:47;;;;;;;7.70;3.03;;;13.00;76.50;;;;;;5033959;28;20028;-64
2022/11/18 09:54:25;;;;;;;8.23;3.08;;;13.00;76.40;;;;;;5035954;28;20044;-64
2022/11/18 09:56:53;;;;;;;6.65;3.13;;;13.00;76.10;;;;;;5036817;28;20029;-64
2022/11/18 09:59:22;;;;;;;9.20;3.05;;;13.00;76.10;;;;;;5035677;28;20026;-64
2022/11/18 10:01:49;;;;;;;10.77;3.58;;;12.90;76.10;;;;;;5032396;28;20036;-64
2022/11/18 10:04:19;;;;;;;9.25;3.65;;;12.80;76.20;;;;;;5032623;28;20063;-64
2022/11/18 10:06:47;;;;;;;6.72;2.72;;;12.80;76.20;;;;;;5030199;28;20036;-64
2022/11/18 10:09:24;;;;;;;8.77;3.65;;;12.70;76.10;;;;;;5038179;28;20458;-65
2022/11/18 10:12:12;;;;;;;8.95;2.97;;;12.70;76.20;;;;;;5034480;28;20025;-65
2022/11/18 10:15:02;;;;;;;8.30;3.20;;;12.60;76.40;;;;;;5035308;28;20026;-65
2022/11/18 10:17:46;;;;;;;8.90;3.25;;;12.60;76.50;;;;;;5034665;28;20454;-67
2022/11/18 10:20:35;;;;;;;9.32;3.50;;;12.60;76.60;;;;;;5033057;28;20121;-66
2022/11/18 10:23:21;;;;;;;6.53;2.80;;;12.60;76.60;;;;;;5034882;28;20176;-65
2022/11/18 10:25:47;;;;;;;9.05;3.30;;;12.60;76.60;;;;;;5034971;28;20038;-67
2022/11/18 10:28:19;;;;;;;8.13;3.50;;;12.60;76.60;;;;;;5046599;28;20041;-67
2022/11/18 10:30:45;;;;;;;9.70;3.42;;;12.50;76.50;;;;;;5034296;28;20017;-67
2022/11/18 10:33:24;;;;;;;9.13;3.47;;;12.60;76.50;;;;;;5034050;28;20468;-64
2022/11/18 10:36:06;;;;;;;8.60;3.30;;;12.60;76.30;;;;;;5034023;28;20025;-64
2022/11/18 10:38:32;;;;;;;8.50;3.08;;;12.60;76.30;;;;;;5034484;28;20029;-64
2022/11/18 10:41:01;;;;;;;7.25;3.05;;;12.70;76.10;;;;;;5033741;28;20040;-65
2022/11/18 10:43:54;;;;;;;8.05;3.03;;;12.80;76.00;;;;;;5033740;28;20033;-65
2022/11/18 10:46:28;;;;;;;7.05;3.20;;;12.90;75.70;;;;;;5035045;28;20041;-64
2022/11/18 10:49:08;;;;;;;7.68;3.35;;;12.90;75.50;;;;;;5042837;28;20021;-65
2022/11/18 10:51:36;;;;;;;9.38;3.42;;;13.00;75.30;;;;;;5038267;28;20345;-65
2022/11/18 10:54:20;;;;;;;8.07;3.17;;;13.10;75.30;;;;;;5033119;28;20037;-64
2022/11/18 10:57:12;;;;;;;8.88;3.25;;;13.20;75.10;;;;;;5033452;28;20122;-64
2022/11/18 10:59:46;;;;;;;7.47;3.35;;;13.20;74.80;;;;;;5032695;28;20040;-65
2022/11/18 11:02:29;;;;;;;10.10;3.80;;;13.30;74.70;;;;;;5033088;28;20450;-66
2022/11/18 11:04:56;;;;;;;9.50;3.28;;;13.30;74.70;;;;;;5033022;28;20034;-65
2022/11/18 11:07:27;;;;;;;7.38;3.22;;;13.30;74.60;;;;;;5034312;28;20044;-65
2022/11/18 11:10:22;;;;;;;7.30;3.55;;;13.40;74.50;;;;;;5032978;28;20048;-65
2022/11/18 11:13:13;;;;;;;6.38;3.30;;;13.40;74.40;;;;;;5033076;28;20099;-65
2022/11/18 11:15:43;;;;;;;6.22;2.95;;;13.40;74.40;;;;;;5033039;28;20415;-65
2022/11/18 11:18:40;;;;;;;8.48;3.20;;;13.50;74.50;;;;;;5032046;28;20056;-65
2022/11/18 11:21:17;;;;;;;7.03;3.15;;;13.40;74.30;;;;;;5030961;28;20138;-65
2022/11/18 11:23:44;;;;;;;7.78;3.10;;;13.40;74.50;;;;;;5031720;28;20134;-65
2022/11/18 11:26:32;;;;;;;7.13;3.17;;;13.50;74.40;;;;;;5032176;28;20033;-65
2022/11/18 11:29:27;;;;;;;9.50;3.67;;;13.40;74.30;;;;;;5015907;28;20040;-65
2022/11/18 11:32:43;;;;;;;6.55;3.10;;;13.30;74.40;;;;;;5033009;28;20417;-65
2022/11/18 11:35:34;;;;;;;8.98;3.42;;;13.20;74.60;;;;;;4965990;28;20451;-65
2022/11/18 11:38:13;;;;;;;7.82;3.20;;;13.20;74.80;;;;;;5011579;28;20026;-65
2022/11/18 11:41:16;;;;;;;7.15;3.05;;;13.10;75.00;;;;;;4997007;28;20038;-63
2022/11/18 11:44:13;;;;;;;9.60;4.05;;;13.10;75.00;;;;;;4997371;28;20045;-63
2022/11/18 11:49:59;;;;;;;11.13;3.50;;;13.10;75.10;;;;;;5005060;28;20144;-66
2022/11/18 11:53:01;;;;;;;7.72;3.45;;;13.00;75.00;;;;;;4975871;28;20386;-65
2022/11/18 11:55:50;;;;;;;8.40;3.25;;;13.00;75.10;;;;;;4999107;28;20177;-65
2022/11/18 11:58:19;;;;;;;8.55;3.60;;;13.00;75.10;;;;;;5000747;28;20046;-65
2022/11/18 12:01:03;;;;;;;8.00;3.60;;;13.00;75.20;;;;;;4981052;28;20395;-63
2022/11/18 12:03:38;;;;;;;8.80;3.60;;;13.00;75.20;;;;;;4999071;28;20208;-64
2022/11/18 12:06:03;;;;;;;9.10;3.90;;;12.90;75.40;;;;;;4999267;28;20034;-64
2022/11/18 12:08:31;;;;;;;9.35;4.07;;;12.90;75.40;;;;;;5005284;28;20103;-64
2022/11/18 12:11:09;;;;;;;9.65;4.32;;;12.90;75.40;;;;;;5032624;28;20029;-65
2022/11/18 12:14:12;;;;;;;10.50;4.28;;;12.90;75.40;;;;;;5032808;28;20026;-63
2022/11/18 12:17:13;;;;;;;7.70;3.90;;;12.90;75.40;;;;;;5029934;28;20049;-64
2022/11/18 12:19:39;;;;;;;10.17;3.90;;;12.90;75.40;;;;;;5031871;28;20369;-64
2022/11/18 12:22:05;;;;;;;8.73;4.18;;;12.80;75.60;;;;;;5031892;28;20149;-64
2022/11/18 12:24:42;;;;;;;13.15;4.57;;;12.80;75.70;;;;;;5031997;28;20052;-64
2022/11/18 12:27:23;;;;;;;8.52;3.92;;;12.80;75.70;;;;;;5030950;28;20525;-64
2022/11/18 12:29:49;;;;;;;7.38;3.92;;;12.80;75.70;;;;;;5034085;28;20025;-65
2022/11/18 12:32:46;;;;;;;11.95;4.53;;;12.80;75.70;;;;;;5031960;28;20021;-68
2022/11/18 12:35:12;;;;;;;8.98;4.20;;;12.90;75.60;;;;;;5030825;28;20065;-64
2022/11/18 12:37:59;;;;;;;7.63;3.53;;;12.90;75.60;;;;;;5033179;28;20049;-65
2022/11/18 12:40:33;;;;;;;9.40;4.03;;;13.00;75.50;;;;;;5034224;28;20072;-64
2022/11/18 12:45:44;;;;;;;7.43;3.92;;;13.10;75.30;;;;;;5034223;28;20025;-64
2022/11/18 12:48:22;;;;;;;10.90;4.03;;;13.10;75.30;;;;;;5032527;28;20439;-64
2022/11/18 12:50:51;;;;;;;8.68;3.70;;;13.10;75.30;;;;;;5035152;28;20332;-64
2022/11/18 12:53:47;;;;;;;10.65;4.20;;;13.10;75.40;;;;;;5034316;28;20430;-64
2022/11/18 12:56:21;;;;;;;7.95;3.58;;;13.10;75.50;;;;;;5024988;28;20045;-64
2022/11/18 12:58:57;;;;;;;9.43;3.90;;;13.10;75.50;;;;;;5037077;28;20384;-64
2022/11/18 13:01:28;;;;;;;8.90;3.92;;;13.00;75.50;;;;;;5033279;28;20120;-64
2022/11/18 13:04:13;;;;;;;9.07;4.47;;;13.00;75.70;;;;;;5030834;28;20432;-64
2022/11/18 13:06:39;;;;;;;8.00;3.83;;;13.00;75.80;;;;;;5031839;28;20106;-64
2022/11/18 13:09:14;;;;;;;9.82;3.95;;;13.00;75.80;;;;;;5034415;28;20022;-67
2022/11/18 13:11:54;;;;;;;7.90;3.55;;;13.00;75.80;;;;;;5031852;28;20025;-65
2022/11/18 13:20:36;;;;;;;14.10;4.68;;;13.00;75.60;;;;;;5020926;28;20397;-64
2022/11/18 13:26:30;;;;;;;7.63;4.10;;;12.90;75.70;;;;;;5020580;28;20034;-64
2022/11/18 13:29:27;;;;;;;10.13;4.47;;;12.90;75.70;;;;;;4998581;28;20366;-64
2022/11/18 13:32:00;;;;;;;9.32;3.95;;;12.80;75.70;;;;;;5016209;28;20038;-64
2022/11/18 13:34:28;;;;;;;12.32;4.20;;;12.90;75.90;;;;;;5002718;28;20038;-64
2022/11/18 13:36:55;;;;;;;13.63;4.60;;;12.90;75.90;;;;;;5022704;28;20034;-64
2022/11/18 13:39:25;;;;;;;8.82;3.67;;;12.80;75.80;;;;;;5032079;28;20045;-65
2022/11/18 13:42:17;;;;;;;9.52;3.80;;;12.90;75.80;;;;;;5026256;28;20057;-65